createdAt,value
2023-04-14T00:02:26.734Z,94.72
2023-04-14T00:04:55.551Z,95.38
2023-04-14T00:07:25.120Z,95.24
2023-04-14T00:09:53.274Z,93.44
2023-04-14T00:12:21.702Z,94.69
2023-04-14T00:14:51.124Z,93.90
2023-04-14T00:17:19.447Z,93.50
2023-04-14T00:19:47.764Z,93.14
2023-04-14T00:22:16.100Z,93.54
2023-04-14T00:24:45.865Z,92.60
2023-04-14T00:27:14.248Z,93.58
2023-04-14T00:29:42.503Z,93.07
2023-04-14T00:32:11.470Z,92.65
2023-04-14T00:34:39.653Z,93.74
2023-04-14T00:37:07.849Z,92.51
2023-04-14T00:39:36.401Z,92.72
2023-04-14T00:42:06.324Z,93.15
2023-04-14T00:44:34.563Z,93.62
2023-04-14T00:47:03.746Z,94.72
2023-04-14T00:49:32.017Z,94.76
2023-04-14T00:52:00.670Z,94.61
2023-04-14T00:54:31.152Z,94.96
2023-04-14T00:57:00.000Z,95.45
2023-04-14T00:59:29.906Z,96.02
2023-04-14T01:01:58.704Z,95.88
2023-04-14T01:04:36.684Z,96.49
2023-04-14T01:07:09.848Z,95.90
2023-04-14T01:09:39.673Z,95.50
2023-04-14T01:12:18.703Z,96.71
2023-04-14T01:14:58.250Z,95.44
2023-04-14T01:17:33.995Z,96.72
2023-04-14T01:20:14.513Z,95.67
2023-04-14T01:22:49.205Z,96.98
2023-04-14T01:26:04.454Z,95.78
2023-04-14T01:29:08.065Z,96.77
2023-04-14T01:31:42.642Z,96.67
2023-04-14T01:34:21.831Z,95.47
2023-04-14T01:36:58.274Z,96.30
2023-04-14T01:39:36.559Z,96.51
2023-04-14T01:42:08.850Z,95.92
2023-04-14T01:44:40.442Z,97.31
2023-04-14T01:47:14.905Z,96.93
2023-04-14T01:49:44.394Z,97.11
2023-04-14T01:52:16.418Z,96.84
2023-04-14T01:54:52.327Z,96.23
2023-04-14T01:57:23.010Z,97.61
2023-04-14T01:59:56.328Z,97.61
2023-04-14T02:02:28.702Z,96.00
2023-04-14T02:04:58.124Z,96.57
2023-04-14T02:07:34.737Z,96.20
2023-04-14T02:10:04.808Z,97.50
2023-04-14T02:12:33.414Z,96.45
2023-04-14T02:15:03.693Z,95.93
2023-04-14T02:17:34.532Z,95.96
2023-04-14T02:20:03.758Z,97.41
2023-04-14T02:22:31.955Z,96.71
2023-04-14T02:25:01.923Z,96.59
2023-04-14T02:27:37.460Z,96.63
2023-04-14T02:30:13.713Z,97.23
2023-04-14T02:32:49.070Z,96.43
2023-04-14T02:35:21.771Z,97.21
2023-04-14T02:37:56.025Z,96.81
2023-04-14T02:40:30.903Z,96.66
2023-04-14T02:43:05.972Z,98.01
2023-04-14T02:45:35.113Z,97.55
2023-04-14T02:48:11.526Z,98.48
2023-04-14T02:50:45.227Z,97.71
2023-04-14T02:53:22.244Z,97.47
2023-04-14T02:55:52.971Z,96.45
2023-04-14T02:58:22.698Z,97.04
2023-04-14T03:00:52.221Z,97.95
2023-04-14T03:03:22.628Z,96.29
2023-04-14T03:05:51.661Z,96.74
2023-04-14T03:08:21.474Z,97.32
2023-04-14T03:10:55.797Z,97.35
2023-04-14T03:13:28.430Z,97.86
2023-04-14T03:15:57.674Z,97.06
2023-04-14T03:18:28.645Z,96.32
2023-04-14T03:21:00.801Z,96.19
2023-04-14T03:23:30.072Z,95.48
2023-04-14T03:26:04.310Z,97.28
2023-04-14T03:28:37.992Z,96.77
2023-04-14T03:31:10.386Z,96.87
2023-04-14T03:33:55.746Z,97.40
2023-04-14T03:36:27.233Z,96.87
2023-04-14T03:39:01.734Z,97.23
2023-04-14T03:41:36.150Z,98.08
2023-04-14T03:44:06.606Z,98.93
2023-04-14T03:46:34.938Z,98.87
2023-04-14T03:49:11.077Z,97.18
2023-04-14T03:51:41.267Z,97.92
2023-04-14T03:54:12.704Z,97.16
2023-04-14T03:56:41.427Z,97.81
2023-04-14T03:59:15.378Z,97.90
2023-04-14T04:01:46.272Z,97.77
2023-04-14T04:04:40.869Z,97.43
2023-04-14T04:07:14.424Z,96.88
2023-04-14T04:09:43.874Z,96.70
2023-04-14T04:12:14.848Z,96.89
2023-04-14T04:14:43.169Z,96.57
2023-04-14T04:17:18.412Z,96.07
2023-04-14T04:19:50.410Z,97.40
2023-04-14T04:22:22.965Z,96.83
2023-04-14T04:24:52.669Z,97.89
2023-04-14T04:27:28.385Z,97.73
2023-04-14T04:30:08.405Z,98.17
2023-04-14T04:32:38.445Z,98.87
2023-04-14T04:35:09.697Z,98.73
2023-04-14T04:37:39.189Z,97.88
2023-04-14T04:40:09.534Z,97.84
2023-04-14T04:42:43.081Z,97.48
2023-04-14T04:45:14.790Z,98.54
2023-04-14T04:47:43.300Z,97.98
2023-04-14T04:50:13.733Z,97.91
2023-04-14T04:52:41.936Z,97.03
2023-04-14T04:55:10.791Z,97.23
2023-04-14T04:57:39.516Z,95.66
2023-04-14T05:00:09.979Z,96.43
2023-04-14T05:02:38.308Z,95.25
2023-04-14T05:05:08.733Z,95.11
2023-04-14T05:07:38.388Z,95.42
2023-04-14T05:10:07.991Z,96.06
2023-04-14T05:12:36.267Z,95.51
2023-04-14T05:15:05.095Z,94.94
2023-04-14T05:17:33.992Z,95.30
2023-04-14T05:20:04.152Z,95.32
2023-04-14T05:22:33.887Z,95.71
2023-04-14T05:25:04.013Z,96.46
2023-04-14T05:27:33.297Z,95.71
2023-04-14T05:30:02.056Z,95.97
2023-04-14T05:32:30.641Z,96.55
2023-04-14T05:34:58.922Z,95.82
2023-04-14T05:37:29.866Z,97.68
2023-04-14T05:39:58.196Z,96.57
2023-04-14T05:42:27.786Z,97.62
2023-04-14T05:44:56.130Z,99.35
2023-04-14T05:47:24.491Z,99.79
2023-04-14T05:49:52.821Z,98.24
2023-04-14T05:52:21.371Z,98.88
2023-04-14T05:54:49.801Z,99.73
2023-04-14T05:57:17.991Z,99.54
2023-04-14T05:59:47.492Z,99.98
2023-04-14T06:02:15.879Z,100.00
2023-04-14T06:05:12.863Z,100.00
2023-04-14T06:07:42.117Z,100.00
2023-04-14T06:10:11.951Z,100.00
2023-04-14T06:12:40.530Z,100.00
2023-04-14T06:15:10.960Z,100.00
2023-04-14T06:17:39.880Z,100.00
2023-04-14T06:20:10.166Z,100.00
2023-04-14T06:22:40.495Z,100.00
2023-04-14T06:25:10.929Z,100.00
2023-04-14T06:27:39.208Z,100.00
2023-04-14T06:30:10.745Z,100.00
2023-04-14T06:32:39.019Z,100.00
2023-04-14T06:35:12.048Z,100.00
2023-04-14T06:37:44.704Z,100.00
2023-04-14T06:40:14.005Z,100.00
2023-04-14T06:42:42.555Z,100.00
2023-04-14T06:45:12.853Z,100.00
2023-04-14T06:47:41.531Z,100.00
2023-04-14T06:50:10.841Z,100.00
2023-04-14T06:52:39.198Z,100.00
2023-04-14T06:55:08.182Z,100.00
2023-04-14T06:57:36.469Z,99.22
2023-04-14T07:00:09.445Z,98.35
2023-04-14T07:02:39.287Z,98.41
2023-04-14T07:05:09.031Z,96.61
2023-04-14T07:07:40.108Z,96.25
2023-04-14T07:10:09.692Z,95.67
2023-04-14T07:12:38.011Z,94.86
2023-04-14T07:15:08.249Z,95.14
2023-04-14T07:17:38.717Z,94.63
2023-04-14T07:20:09.352Z,94.81
2023-04-14T07:22:37.962Z,93.21
2023-04-14T07:25:07.126Z,95.10
2023-04-14T07:27:35.427Z,94.56
2023-04-14T07:30:03.826Z,94.30
2023-04-14T07:32:33.016Z,92.73
2023-04-14T07:35:02.542Z,93.47
2023-04-14T07:37:30.769Z,91.47
2023-04-14T07:39:59.453Z,91.22
2023-04-14T07:42:27.886Z,90.03
2023-04-14T07:44:56.089Z,90.08
2023-04-14T07:47:24.284Z,90.00
2023-04-14T07:49:54.435Z,90.40
2023-04-14T07:52:24.069Z,89.42
2023-04-14T07:54:52.310Z,88.91
2023-04-14T07:57:20.546Z,89.99
2023-04-14T07:59:48.731Z,88.59
2023-04-14T08:02:17.400Z,87.66
2023-04-14T08:04:45.676Z,87.52
2023-04-14T08:07:14.030Z,87.15
2023-04-14T08:09:43.715Z,87.31
2023-04-14T08:12:11.876Z,87.03
2023-04-14T08:14:40.203Z,87.30
2023-04-14T08:17:08.467Z,87.30
2023-04-14T08:19:37.066Z,86.67
2023-04-14T08:22:05.450Z,87.14
2023-04-14T08:24:35.416Z,85.83
2023-04-14T08:27:07.275Z,87.17
2023-04-14T08:29:35.583Z,85.80
2023-04-14T08:32:04.795Z,85.77
2023-04-14T08:34:33.132Z,85.57
2023-04-14T08:37:01.699Z,85.18
2023-04-14T08:39:30.261Z,85.54
2023-04-14T08:41:58.500Z,86.56
2023-04-14T08:44:28.107Z,86.15
2023-04-14T08:46:56.845Z,85.46
2023-04-14T08:49:34.682Z,86.19
2023-04-14T08:52:04.788Z,84.49
2023-04-14T08:54:33.177Z,85.09
2023-04-14T08:57:03.747Z,84.03
2023-04-14T08:59:33.900Z,83.27
2023-04-14T09:02:05.566Z,83.75
2023-04-14T09:04:35.028Z,81.26
2023-04-14T09:07:03.940Z,81.53
2023-04-14T09:09:32.895Z,82.43
2023-04-14T09:12:03.162Z,82.35
2023-04-14T09:14:34.647Z,82.77
2023-04-14T09:17:03.102Z,81.53
2023-04-14T09:19:31.908Z,79.00
2023-04-14T09:22:00.767Z,78.85
2023-04-14T09:24:32.506Z,80.09
2023-04-14T09:27:03.610Z,78.21
2023-04-14T09:29:33.868Z,79.54
2023-04-14T09:32:02.134Z,78.25
2023-04-14T09:34:30.495Z,80.05
2023-04-14T09:37:05.656Z,75.62
2023-04-14T09:39:34.749Z,76.46
2023-04-14T09:42:03.652Z,74.23
2023-04-14T09:44:33.277Z,77.37
2023-04-14T09:47:05.142Z,73.23
2023-04-14T09:49:33.736Z,73.72
2023-04-14T09:52:09.056Z,73.53
2023-04-14T09:54:37.760Z,72.55
2023-04-14T09:57:06.280Z,75.66
2023-04-14T09:59:37.995Z,74.36
2023-04-14T10:02:09.076Z,72.49
2023-04-14T10:04:38.975Z,68.73
2023-04-14T10:07:08.985Z,73.63
2023-04-14T10:09:38.708Z,70.80
2023-04-14T10:12:13.328Z,68.84
2023-04-14T10:14:44.153Z,71.07
2023-04-14T10:17:13.653Z,70.78
2023-04-14T10:19:42.223Z,72.91
2023-04-14T10:22:10.796Z,71.62
2023-04-14T10:24:39.132Z,71.86
2023-04-14T10:27:07.680Z,69.52
2023-04-14T10:29:36.069Z,70.23
2023-04-14T10:32:08.801Z,69.83
2023-04-14T10:34:40.514Z,71.43
2023-04-14T10:37:14.830Z,70.21
2023-04-14T10:39:43.949Z,67.12
2023-04-14T10:42:12.325Z,68.18
2023-04-14T10:44:40.856Z,68.66
2023-04-14T10:47:10.830Z,69.27
2023-04-14T10:49:41.491Z,69.39
2023-04-14T10:52:33.553Z,69.98
2023-04-14T10:55:08.914Z,70.38
2023-04-14T10:57:43.581Z,70.81
2023-04-14T11:00:26.232Z,68.41
2023-04-14T11:03:04.479Z,68.78
2023-04-14T11:05:35.111Z,69.91
2023-04-14T11:08:14.616Z,69.18
2023-04-14T11:10:48.565Z,65.67
2023-04-14T11:13:21.130Z,63.71
2023-04-14T11:15:51.926Z,66.35
2023-04-14T11:18:34.065Z,64.48
2023-04-14T11:21:07.670Z,64.91
2023-04-14T11:23:38.387Z,65.62
2023-04-14T11:26:08.165Z,65.66
2023-04-14T11:28:38.192Z,64.71
2023-04-14T11:31:08.850Z,62.70
2023-04-14T11:33:41.543Z,60.62
2023-04-14T11:36:14.392Z,62.46
2023-04-14T11:38:44.211Z,64.26
2023-04-14T11:41:16.746Z,62.08
2023-04-14T11:43:48.822Z,60.33
2023-04-14T11:46:20.533Z,61.75
2023-04-14T11:48:55.977Z,64.02
2023-04-14T11:51:32.423Z,64.04
2023-04-14T11:54:01.530Z,62.23
2023-04-14T11:56:31.873Z,63.51
2023-04-14T11:59:01.878Z,60.13
2023-04-14T12:01:31.378Z,60.56
2023-04-14T12:07:13.130Z,65.03
2023-04-14T12:09:44.737Z,62.65
2023-04-14T12:12:14.582Z,63.21
2023-04-14T12:14:48.229Z,59.84
2023-04-14T12:17:17.873Z,61.27
2023-04-14T12:19:48.912Z,62.38
2023-04-14T12:22:25.045Z,59.81
2023-04-14T12:24:53.542Z,60.86
2023-04-14T12:27:23.728Z,61.04
2023-04-14T12:29:52.739Z,61.60
2023-04-14T12:32:22.230Z,61.35
2023-04-14T12:34:59.046Z,62.25
2023-04-14T12:37:28.840Z,63.69
2023-04-14T12:39:59.302Z,63.40
2023-04-14T12:42:29.646Z,63.33
2023-04-14T12:45:00.478Z,63.59
2023-04-14T12:47:34.050Z,63.66
2023-04-14T12:50:23.455Z,62.62
2023-04-14T12:52:52.937Z,60.79
2023-04-14T12:55:22.970Z,59.03
2023-04-14T12:57:54.094Z,60.51
2023-04-14T13:00:23.440Z,57.00
2023-04-14T13:02:52.272Z,57.79
2023-04-14T13:05:22.295Z,62.24
2023-04-14T13:07:50.559Z,62.55
2023-04-14T13:10:18.910Z,61.87
2023-04-14T13:12:47.188Z,62.37
2023-04-14T13:16:09.472Z,61.93
2023-04-14T13:18:03.766Z,61.70
2023-04-14T13:20:33.732Z,60.35
2023-04-14T13:23:02.100Z,60.50
2023-04-14T13:25:55.542Z,61.95
2023-04-14T13:28:23.854Z,61.23
2023-04-14T13:30:54.938Z,61.03
2023-04-14T13:33:24.575Z,60.57
2023-04-14T13:35:55.635Z,60.55
2023-04-14T13:38:24.103Z,60.51
2023-04-14T13:40:52.376Z,60.56
2023-04-14T13:43:21.020Z,57.83
2023-04-14T13:45:49.273Z,57.97
2023-04-14T13:48:17.518Z,57.06
2023-04-14T13:50:45.712Z,55.22
2023-04-14T13:53:15.265Z,55.51
2023-04-14T13:55:43.553Z,55.13
2023-04-14T13:58:11.831Z,55.93
2023-04-14T14:00:40.327Z,54.50
2023-04-14T14:03:08.685Z,53.89
2023-04-14T14:05:36.980Z,55.88
2023-04-14T14:08:07.051Z,55.22
2023-04-14T14:10:36.718Z,56.52
2023-04-14T14:13:05.595Z,61.67
2023-04-14T14:15:34.486Z,67.38
2023-04-14T14:18:03.088Z,73.07
2023-04-14T14:20:31.380Z,72.87
2023-04-14T14:22:59.588Z,73.09
2023-04-14T14:25:28.422Z,75.07
2023-04-14T14:27:58.208Z,74.05
2023-04-14T14:30:26.642Z,72.54
2023-04-14T14:32:54.894Z,75.00
2023-04-14T14:35:24.132Z,74.44
2023-04-14T14:37:52.368Z,75.60
2023-04-14T14:40:20.838Z,77.36
2023-04-14T14:42:49.099Z,79.29
2023-04-14T14:45:27.479Z,78.88
2023-04-14T14:48:00.107Z,78.92
2023-04-14T14:50:28.514Z,78.84
2023-04-14T14:52:57.133Z,77.59
2023-04-14T14:55:25.729Z,76.45
2023-04-14T14:57:53.964Z,77.14
2023-04-14T15:00:23.598Z,76.78
2023-04-14T15:02:51.960Z,75.38
2023-04-14T15:05:20.299Z,75.18
2023-04-14T15:07:48.470Z,74.49
2023-04-14T15:10:16.748Z,74.18
2023-04-14T15:12:44.962Z,75.20
2023-04-14T15:15:13.365Z,75.12
2023-04-14T15:17:42.980Z,72.15
2023-04-14T15:20:12.824Z,71.83
2023-04-14T15:22:41.168Z,70.12
2023-04-14T15:25:10.602Z,71.13
2023-04-14T15:27:38.842Z,70.58
2023-04-14T15:30:08.968Z,72.81
2023-04-14T15:32:37.617Z,70.89
2023-04-14T15:35:08.714Z,72.53
2023-04-14T15:37:37.255Z,71.59
2023-04-14T15:40:06.181Z,71.08
2023-04-14T15:42:34.440Z,71.59
2023-04-14T15:45:02.744Z,70.38
2023-04-14T15:47:31.637Z,70.25
2023-04-14T15:50:09.569Z,70.08
2023-04-14T15:52:40.238Z,68.21
2023-04-14T15:55:10.598Z,68.35
2023-04-14T15:57:38.871Z,68.64
2023-04-14T16:00:08.917Z,67.52
2023-04-14T16:02:45.797Z,68.10
2023-04-14T16:05:14.345Z,69.03
2023-04-14T16:07:44.796Z,68.95
2023-04-14T16:10:13.410Z,68.75
2023-04-14T16:12:41.658Z,68.28
2023-04-14T16:15:11.478Z,67.42
2023-04-14T16:17:39.738Z,67.02
2023-04-14T16:20:08.645Z,68.09
2023-04-14T16:22:37.049Z,68.31
2023-04-14T16:25:08.118Z,68.35
2023-04-14T16:27:36.379Z,67.45
2023-04-14T16:30:05.111Z,68.18
2023-04-14T16:32:33.291Z,69.21
2023-04-14T16:35:01.920Z,68.32
2023-04-14T16:37:30.168Z,68.77
2023-04-14T16:39:58.678Z,68.50
2023-04-14T16:42:28.508Z,69.45
2023-04-14T16:44:57.193Z,68.69
2023-04-14T16:47:25.525Z,69.90
2023-04-14T16:49:54.029Z,69.41
2023-04-14T16:52:22.424Z,70.04
2023-04-14T16:54:50.625Z,69.98
2023-04-14T16:57:18.833Z,71.55
2023-04-14T16:59:48.697Z,71.37
2023-04-14T17:02:17.002Z,69.99
2023-04-14T17:04:45.709Z,71.32
2023-04-14T17:07:14.105Z,71.63
2023-04-14T17:09:42.837Z,70.85
2023-04-14T17:12:11.068Z,73.59
2023-04-14T17:14:39.518Z,74.34
2023-04-14T17:17:09.166Z,75.21
2023-04-14T17:19:39.012Z,76.67
2023-04-14T17:22:07.490Z,77.40
2023-04-14T17:24:35.700Z,77.75
2023-04-14T17:27:03.983Z,78.04
2023-04-14T17:29:33.086Z,80.07
2023-04-14T17:32:02.582Z,81.81
2023-04-14T17:34:32.401Z,83.34
2023-04-14T17:37:00.879Z,83.79
2023-04-14T17:39:29.178Z,84.44
2023-04-14T17:41:58.910Z,84.80
2023-04-14T17:44:33.598Z,85.13
2023-04-14T17:47:03.282Z,84.14
2023-04-14T17:49:34.164Z,83.94
2023-04-14T17:52:17.577Z,84.95
2023-04-14T17:54:46.647Z,85.01
2023-04-14T17:57:15.059Z,86.48
2023-04-14T17:59:44.823Z,88.13
2023-04-14T18:02:15.812Z,88.12
2023-04-14T18:05:11.349Z,89.13
2023-04-14T18:07:39.571Z,88.55
2023-04-14T18:10:09.426Z,90.08
2023-04-14T18:12:37.612Z,89.67
2023-04-14T18:15:07.156Z,89.74
2023-04-14T18:17:36.439Z,90.32
2023-04-14T18:20:06.035Z,90.53
2023-04-14T18:22:35.654Z,89.77
2023-04-14T18:25:03.996Z,90.84
2023-04-14T18:30:03.749Z,91.50
2023-04-14T18:32:32.201Z,91.55
2023-04-14T18:35:00.865Z,90.97
2023-04-14T18:37:29.071Z,90.93
2023-04-14T18:39:58.940Z,90.95
2023-04-14T18:42:27.362Z,90.59
2023-04-14T18:44:55.572Z,91.76
2023-04-14T18:47:23.925Z,91.03
2023-04-14T18:49:52.874Z,90.60
2023-04-14T18:52:21.101Z,90.69
2023-04-14T18:54:49.497Z,91.43
2023-04-14T18:57:19.198Z,91.38
2023-04-14T18:59:47.690Z,90.95
2023-04-14T19:02:15.935Z,91.13
2023-04-14T19:04:44.753Z,91.83
2023-04-14T19:07:13.092Z,92.08
2023-04-14T19:09:41.288Z,91.94
2023-04-14T19:12:18.457Z,91.48
2023-04-14T19:14:56.997Z,91.33
2023-04-14T19:17:26.037Z,92.14
2023-04-14T19:19:54.904Z,93.18
2023-04-14T19:22:23.056Z,92.56
2023-04-14T19:24:51.536Z,92.11
2023-04-14T19:27:19.825Z,92.20
2023-04-14T19:29:48.086Z,92.08
2023-04-14T19:32:18.254Z,92.47
2023-04-14T19:34:46.593Z,92.26
2023-04-14T19:37:14.938Z,92.17
2023-04-14T19:39:43.155Z,92.14
2023-04-14T19:42:11.313Z,90.82
2023-04-14T19:44:39.930Z,90.58
2023-04-14T19:47:08.283Z,90.31
2023-04-14T19:49:37.911Z,89.58
2023-04-14T19:52:06.225Z,90.16
2023-04-14T19:54:34.523Z,89.57
2023-04-14T19:57:03.344Z,89.83
2023-04-14T19:59:32.841Z,91.07
2023-04-14T20:02:01.853Z,91.89
2023-04-14T20:04:33.281Z,94.04
2023-04-14T20:07:03.383Z,94.59
2023-04-14T20:09:31.564Z,94.02
2023-04-14T20:12:02.074Z,93.46
2023-04-14T20:14:30.494Z,93.09
2023-04-14T20:16:59.442Z,91.47
2023-04-14T20:19:27.833Z,92.04
2023-04-14T20:21:56.641Z,90.20
2023-04-14T20:24:26.268Z,89.42
2023-04-14T20:26:55.450Z,89.56
2023-04-14T20:29:24.148Z,89.60
2023-04-14T20:31:53.454Z,90.23
2023-04-14T20:34:21.664Z,90.05
2023-04-14T20:36:52.994Z,89.39
2023-04-14T20:39:21.218Z,89.11
2023-04-14T20:41:50.929Z,90.96
2023-04-14T20:44:19.556Z,91.24
2023-04-14T20:46:48.232Z,91.79
2023-04-14T20:49:16.665Z,90.55
2023-04-14T20:51:46.787Z,89.51
2023-04-14T20:54:15.034Z,90.32
2023-04-14T20:56:44.100Z,90.32
2023-04-14T20:59:13.915Z,90.01
2023-04-14T21:01:42.715Z,88.76
2023-04-14T21:04:11.300Z,89.09
2023-04-14T21:06:39.580Z,90.36
2023-04-14T21:09:08.909Z,89.00
2023-04-14T21:11:38.560Z,89.77
2023-04-14T21:15:28.296Z,92.03
2023-04-14T21:16:58.667Z,92.65
2023-04-14T21:19:28.326Z,91.97
2023-04-14T21:21:56.522Z,90.65
2023-04-14T21:24:25.016Z,89.37
2023-04-14T21:26:53.342Z,90.94
2023-04-14T21:29:21.577Z,89.82
2023-04-14T21:31:49.831Z,90.60
2023-04-14T21:34:19.438Z,92.21
2023-04-14T21:36:48.399Z,91.81
2023-04-14T21:39:17.546Z,91.57
2023-04-14T21:41:45.766Z,89.76
2023-04-14T21:44:15.683Z,90.29
2023-04-14T21:46:43.958Z,90.80
2023-04-14T21:49:12.519Z,89.69
2023-04-14T21:51:42.184Z,91.26
2023-04-14T21:54:11.120Z,90.08
2023-04-14T21:56:39.727Z,91.53
2023-04-14T21:59:08.201Z,93.25
2023-04-14T22:01:36.551Z,94.16
2023-04-14T22:04:11.408Z,93.46
2023-04-14T22:06:45.847Z,94.38
2023-04-14T22:09:14.118Z,95.80
2023-04-14T22:11:43.688Z,94.02
2023-04-14T22:14:11.940Z,94.68
2023-04-14T22:16:41.100Z,93.52
2023-04-14T22:19:10.399Z,94.08
2023-04-14T22:21:39.236Z,94.85
2023-04-14T22:24:09.745Z,93.30
2023-04-14T22:26:37.967Z,93.16
2023-04-14T22:29:06.284Z,93.25
2023-04-14T22:31:40.842Z,93.94
2023-04-14T22:34:09.718Z,93.72
2023-04-14T22:36:38.128Z,93.46
2023-04-14T22:39:06.512Z,93.38
2023-04-14T22:41:36.111Z,93.37
2023-04-14T22:44:05.947Z,94.75
2023-04-14T22:46:34.465Z,94.24
2023-04-14T22:49:03.004Z,93.77
2023-04-14T22:51:31.835Z,93.38
2023-04-14T22:54:00.041Z,94.56
2023-04-14T22:56:28.783Z,94.49
2023-04-14T22:58:58.977Z,94.88
2023-04-14T23:01:28.959Z,94.82
2023-04-14T23:03:57.469Z,95.03
2023-04-14T23:06:25.799Z,93.61
2023-04-14T23:08:54.094Z,92.43
2023-04-14T23:11:22.333Z,93.08
2023-04-14T23:13:51.402Z,92.95
2023-04-14T23:16:21.301Z,93.55
2023-04-14T23:18:52.443Z,93.21
2023-04-14T23:21:22.111Z,94.05
2023-04-14T23:23:50.648Z,94.25
2023-04-14T23:26:19.637Z,94.42
2023-04-14T23:28:48.178Z,92.94
2023-04-14T23:31:17.413Z,93.44
2023-04-14T23:33:49.450Z,93.00
2023-04-14T23:36:18.641Z,93.79
2023-04-14T23:38:46.996Z,94.16
2023-04-14T23:41:15.684Z,94.20
2023-04-14T23:43:44.003Z,94.58
2023-04-14T23:46:12.359Z,94.30
2023-04-14T23:48:40.675Z,94.99
2023-04-14T23:51:14.312Z,94.03
2023-04-14T23:53:44.891Z,94.87
2023-04-14T23:56:13.163Z,95.77
2023-04-14T23:58:41.449Z,94.88
